createdAt,value
2018-12-22T00:01:46.448Z,2.77
2018-12-22T00:07:08.078Z,3.12
2018-12-22T00:09:38.523Z,1.55
2018-12-22T00:12:13.801Z,2.33
2018-12-22T00:14:44.424Z,1.27
2018-12-22T00:17:15.245Z,1.07
2018-12-22T00:19:46.620Z,2.22
2018-12-22T00:22:17.541Z,3.90
2018-12-22T00:24:48.081Z,0.72
2018-12-22T00:27:18.515Z,0.75
2018-12-22T00:29:48.916Z,1.30
2018-12-22T00:32:19.454Z,1.37
2018-12-22T00:34:51.801Z,1.77
2018-12-22T00:37:28.811Z,1.05
2018-12-22T00:39:59.333Z,3.25
2018-12-22T00:42:29.669Z,1.10
2018-12-22T00:45:01.650Z,1.70
2018-12-22T00:47:32.643Z,6.12
2018-12-22T00:50:05.822Z,2.30
2018-12-22T00:52:39.692Z,1.87
2018-12-22T00:55:12.460Z,1.75
2018-12-22T00:57:43.271Z,5.85
2018-12-22T01:00:15.067Z,2.45
2018-12-22T01:02:45.753Z,1.72
2018-12-22T01:05:16.462Z,8.43
2018-12-22T01:07:49.350Z,3.62
2018-12-22T01:10:20.543Z,1.30
2018-12-22T01:12:51.108Z,1.20
2018-12-22T01:15:21.492Z,4.45
2018-12-22T01:17:52.746Z,4.90
2018-12-22T01:20:31.886Z,5.37
2018-12-22T01:23:02.302Z,1.77
2018-12-22T01:25:32.637Z,1.32
2018-12-22T01:28:03.035Z,1.47
2018-12-22T01:30:33.380Z,1.20
2018-12-22T01:33:03.725Z,1.85
2018-12-22T01:35:34.589Z,1.98
2018-12-22T01:38:05.439Z,1.70
2018-12-22T01:40:36.013Z,1.20
2018-12-22T01:43:06.302Z,1.85
2018-12-22T01:45:41.475Z,1.07
2018-12-22T01:48:12.256Z,1.60
2018-12-22T01:50:43.030Z,2.27
2018-12-22T01:53:13.819Z,3.17
2018-12-22T01:55:44.443Z,2.70
2018-12-22T01:58:14.959Z,3.15
2018-12-22T02:00:48.062Z,11.78
2018-12-22T02:03:18.575Z,2.75
2018-12-22T02:05:48.948Z,3.33
2018-12-22T02:08:19.341Z,1.22
2018-12-22T02:10:49.764Z,2.92
2018-12-22T02:13:20.000Z,1.95
2018-12-22T02:15:50.405Z,2.20
2018-12-22T02:18:20.578Z,2.22
2018-12-22T02:20:50.903Z,1.80
2018-12-22T02:23:21.415Z,1.07
2018-12-22T02:25:51.902Z,1.92
2018-12-22T02:28:22.191Z,0.70
2018-12-22T02:30:52.580Z,3.70
2018-12-22T02:33:23.147Z,1.07
2018-12-22T02:35:53.637Z,1.57
2018-12-22T02:38:24.323Z,0.80
2018-12-22T02:40:54.828Z,2.25
2018-12-22T02:43:25.117Z,1.12
2018-12-22T02:45:55.511Z,1.77
2018-12-22T02:48:25.956Z,1.50
2018-12-22T02:50:56.294Z,2.83
2018-12-22T02:53:26.707Z,1.55
2018-12-22T02:55:57.081Z,1.45
2018-12-22T02:58:27.394Z,2.35
2018-12-22T03:00:57.802Z,1.32
2018-12-22T03:03:28.128Z,1.77
2018-12-22T03:05:58.564Z,2.35
2018-12-22T03:08:28.890Z,2.17
2018-12-22T03:10:59.409Z,1.05
2018-12-22T03:13:29.606Z,0.72
2018-12-22T03:15:59.883Z,1.00
2018-12-22T03:18:30.215Z,1.45
2018-12-22T03:21:00.548Z,1.60
2018-12-22T03:23:30.802Z,2.70
2018-12-22T03:26:01.203Z,2.17
2018-12-22T03:28:31.550Z,2.58
2018-12-22T03:31:01.899Z,0.65
2018-12-22T03:33:32.446Z,1.05
2018-12-22T03:36:02.933Z,2.27
2018-12-22T03:38:33.278Z,3.12
2018-12-22T03:41:03.855Z,0.95
2018-12-22T03:43:34.152Z,1.00
2018-12-22T03:46:04.751Z,1.30
2018-12-22T03:48:35.698Z,1.12
2018-12-22T03:51:06.105Z,0.78
2018-12-22T03:53:36.535Z,3.80
2018-12-22T03:56:07.161Z,4.42
2018-12-22T03:58:37.461Z,2.05
2018-12-22T04:01:07.803Z,0.85
2018-12-22T04:03:38.566Z,1.77
2018-12-22T04:06:08.854Z,0.78
2018-12-22T04:08:39.177Z,1.35
2018-12-22T04:11:09.443Z,2.08
2018-12-22T04:13:39.940Z,5.10
2018-12-22T04:16:10.297Z,0.90
2018-12-22T04:18:41.243Z,1.07
2018-12-22T04:21:11.734Z,0.50
2018-12-22T04:23:43.238Z,0.50
2018-12-22T04:26:13.576Z,0.50
2018-12-22T04:28:44.863Z,1.12
2018-12-22T04:31:15.305Z,0.50
2018-12-22T04:33:45.507Z,0.65
2018-12-22T04:36:15.806Z,0.70
2018-12-22T04:38:46.106Z,2.47
2018-12-22T04:41:16.358Z,0.80
2018-12-22T04:43:46.667Z,1.45
2018-12-22T04:46:17.055Z,2.02
2018-12-22T04:48:47.665Z,0.75
2018-12-22T04:51:18.510Z,0.47
2018-12-22T04:53:48.923Z,0.50
2018-12-22T04:56:27.187Z,1.17
2018-12-22T04:58:57.427Z,1.50
2018-12-22T05:01:27.870Z,0.60
2018-12-22T05:03:58.200Z,0.70
2018-12-22T05:06:28.738Z,1.40
2018-12-22T05:08:59.270Z,0.85
2018-12-22T05:11:29.644Z,1.82
2018-12-22T05:14:00.001Z,0.60
2018-12-22T05:16:30.277Z,2.15
2018-12-22T05:19:00.654Z,1.75
2018-12-22T05:21:31.115Z,2.65
2018-12-22T05:24:01.307Z,1.75
2018-12-22T05:26:31.725Z,0.60
2018-12-22T05:29:02.026Z,1.30
2018-12-22T05:31:32.362Z,1.25
2018-12-22T05:34:02.614Z,1.98
2018-12-22T05:36:33.033Z,0.78
2018-12-22T05:39:06.008Z,0.55
2018-12-22T05:41:36.560Z,1.60
2018-12-22T05:44:06.906Z,0.82
2018-12-22T05:46:37.518Z,0.93
2018-12-22T05:49:07.925Z,0.72
2018-12-22T05:51:38.200Z,0.55
2018-12-22T05:54:08.452Z,1.80
2018-12-22T05:56:38.780Z,0.68
2018-12-22T05:59:09.048Z,1.62
2018-12-22T06:01:39.394Z,0.70
2018-12-22T06:04:09.739Z,3.70
2018-12-22T06:06:39.965Z,0.70
2018-12-22T06:09:10.266Z,0.80
2018-12-22T06:11:40.580Z,0.80
2018-12-22T06:14:10.779Z,0.75
2018-12-22T06:16:41.033Z,3.02
2018-12-22T06:19:11.395Z,2.02
2018-12-22T06:21:41.853Z,1.55
2018-12-22T06:24:12.270Z,3.77
2018-12-22T06:26:42.614Z,0.68
2018-12-22T06:29:12.889Z,1.35
2018-12-22T06:31:43.361Z,0.93
2018-12-22T06:34:13.656Z,0.98
2018-12-22T06:36:44.185Z,1.00
2018-12-22T06:39:14.515Z,2.45
2018-12-22T06:41:44.955Z,0.88
2018-12-22T06:44:15.228Z,3.17
2018-12-22T06:46:45.635Z,0.80
2018-12-22T06:49:15.951Z,4.20
2018-12-22T06:51:46.368Z,3.15
2018-12-22T06:54:16.619Z,2.72
2018-12-22T06:56:47.012Z,6.95
2018-12-22T06:59:17.828Z,1.60
2018-12-22T07:01:48.172Z,3.90
2018-12-22T07:04:18.359Z,3.05
2018-12-22T07:06:48.743Z,2.77
2018-12-22T07:09:19.094Z,0.68
2018-12-22T07:11:49.457Z,2.87
2018-12-22T07:14:19.795Z,3.10
2018-12-22T07:16:50.204Z,4.05
2018-12-22T07:19:20.507Z,4.22
2018-12-22T07:21:50.697Z,1.25
2018-12-22T07:24:21.189Z,1.92
2018-12-22T07:26:51.619Z,1.30
2018-12-22T07:29:21.985Z,1.00
2018-12-22T07:31:52.232Z,3.15
2018-12-22T07:34:22.511Z,1.98
2018-12-22T07:36:52.859Z,7.03
2018-12-22T07:39:23.551Z,3.10
2018-12-22T07:41:54.018Z,3.42
2018-12-22T07:44:24.462Z,5.80
2018-12-22T07:46:54.776Z,1.77
2018-12-22T07:49:25.065Z,3.98
2018-12-22T07:51:55.422Z,5.45
2018-12-22T07:54:25.755Z,4.20
2018-12-22T07:56:56.369Z,2.58
2018-12-22T07:59:26.610Z,4.97
2018-12-22T08:01:56.943Z,4.00
2018-12-22T08:04:27.268Z,1.72
2018-12-22T08:06:57.769Z,3.27
2018-12-22T08:09:28.228Z,2.98
2018-12-22T08:11:58.735Z,1.07
2018-12-22T08:14:29.392Z,2.75
2018-12-22T08:16:59.907Z,3.12
2018-12-22T08:19:30.338Z,2.25
2018-12-22T08:22:00.606Z,1.70
2018-12-22T08:24:31.098Z,4.42
2018-12-22T08:27:02.420Z,3.12
2018-12-22T08:29:32.870Z,4.95
2018-12-22T08:32:03.090Z,1.40
2018-12-22T08:34:33.423Z,1.25
2018-12-22T08:37:03.805Z,1.65
2018-12-22T08:39:34.417Z,2.30
2018-12-22T08:42:04.960Z,4.65
2018-12-22T08:44:35.290Z,2.12
2018-12-22T08:47:05.619Z,2.50
2018-12-22T08:49:38.584Z,7.15
2018-12-22T08:52:15.618Z,1.47
2018-12-22T08:54:46.856Z,1.12
2018-12-22T08:57:17.132Z,8.45
2018-12-22T08:59:50.605Z,3.35
2018-12-22T09:02:22.335Z,9.10
2018-12-22T09:04:52.661Z,5.12
2018-12-22T09:07:23.120Z,4.60
2018-12-22T09:09:53.298Z,2.60
2018-12-22T09:12:23.539Z,1.82
2018-12-22T09:14:53.967Z,2.25
2018-12-22T09:17:24.515Z,1.65
2018-12-22T09:19:54.942Z,5.55
2018-12-22T09:22:25.402Z,6.67
2018-12-22T09:24:55.692Z,16.52
2018-12-22T09:27:28.731Z,5.87
2018-12-22T09:29:59.282Z,3.20
2018-12-22T09:32:29.596Z,1.00
2018-12-22T09:35:00.743Z,5.00
2018-12-22T09:37:31.115Z,6.28
2018-12-22T09:40:01.646Z,3.20
2018-12-22T09:42:32.199Z,0.95
2018-12-22T09:45:02.890Z,2.02
2018-12-22T09:47:33.588Z,2.35
2018-12-22T09:50:07.636Z,4.10
2018-12-22T09:52:38.915Z,2.75
2018-12-22T09:55:10.467Z,9.40
2018-12-22T09:57:41.095Z,3.90
2018-12-22T10:00:13.042Z,4.17
2018-12-22T10:02:43.607Z,3.47
2018-12-22T10:05:13.998Z,2.45
2018-12-22T10:07:44.547Z,2.80
2018-12-22T10:10:18.568Z,5.33
2018-12-22T10:12:48.973Z,3.25
2018-12-22T10:15:19.480Z,3.55
2018-12-22T10:17:50.580Z,2.75
2018-12-22T10:23:14.710Z,3.60
2018-12-22T10:25:45.050Z,5.03
2018-12-22T10:28:15.533Z,5.37
2018-12-22T10:30:46.303Z,7.65
2018-12-22T10:33:16.910Z,6.12
2018-12-22T10:35:47.324Z,6.15
2018-12-22T10:38:17.757Z,4.55
2018-12-22T10:40:48.214Z,4.95
2018-12-22T10:43:18.553Z,4.85
2018-12-22T10:45:48.968Z,4.85
2018-12-22T10:48:19.360Z,12.55
2018-12-22T10:50:50.115Z,3.98
2018-12-22T10:53:20.909Z,4.78
2018-12-22T10:55:51.338Z,2.80
2018-12-22T10:58:30.320Z,11.50
2018-12-22T11:01:00.901Z,5.50
2018-12-22T11:03:32.113Z,5.47
2018-12-22T11:06:09.312Z,7.05
2018-12-22T11:08:39.818Z,3.05
2018-12-22T11:11:10.137Z,4.10
2018-12-22T11:13:40.352Z,10.45
2018-12-22T11:16:10.740Z,12.58
2018-12-22T11:18:41.082Z,3.87
2018-12-22T11:21:11.443Z,14.95
2018-12-22T11:23:41.997Z,7.85
2018-12-22T11:26:12.371Z,5.28
2018-12-22T11:28:42.735Z,3.85
2018-12-22T11:31:13.062Z,5.87
2018-12-22T11:33:43.372Z,2.17
2018-12-22T11:36:13.773Z,8.55
2018-12-22T11:38:44.204Z,3.70
2018-12-22T11:41:14.583Z,6.05
2018-12-22T11:43:44.975Z,7.97
2018-12-22T11:46:15.308Z,8.88
2018-12-22T11:49:40.940Z,9.03
2018-12-22T11:52:11.636Z,7.40
2018-12-22T11:54:42.100Z,7.47
2018-12-22T11:57:12.437Z,5.72
2018-12-22T11:59:42.779Z,4.00
2018-12-22T12:02:13.116Z,4.25
2018-12-22T12:04:43.267Z,3.80
2018-12-22T12:07:13.618Z,5.75
2018-12-22T12:09:44.105Z,8.43
2018-12-22T12:12:14.735Z,2.55
2018-12-22T12:14:45.496Z,1.10
2018-12-22T12:17:38.011Z,5.92
2018-12-22T12:20:08.367Z,3.20
2018-12-22T12:22:38.714Z,4.87
2018-12-22T12:25:09.197Z,3.20
2018-12-22T12:27:39.535Z,2.08
2018-12-22T12:30:10.884Z,1.00
2018-12-22T12:32:41.197Z,4.83
2018-12-22T12:35:11.819Z,6.97
2018-12-22T12:37:42.227Z,1.50
2018-12-22T12:40:13.661Z,1.60
2018-12-22T12:42:44.501Z,2.35
2018-12-22T12:45:15.050Z,1.92
2018-12-22T12:47:47.267Z,7.55
2018-12-22T12:50:20.847Z,1.90
2018-12-22T12:52:51.276Z,1.82
2018-12-22T12:55:21.851Z,3.35
2018-12-22T12:57:52.259Z,5.53
2018-12-22T13:00:24.598Z,3.02
2018-12-22T13:02:56.079Z,3.35
2018-12-22T13:05:26.931Z,4.87
2018-12-22T13:10:51.339Z,3.50
2018-12-22T13:14:02.666Z,7.85
2018-12-22T13:16:34.747Z,3.72
2018-12-22T13:19:05.146Z,5.28
2018-12-22T13:21:35.582Z,3.95
2018-12-22T13:24:08.736Z,2.37
2018-12-22T13:26:39.604Z,5.55
2018-12-22T13:29:10.100Z,2.40
2018-12-22T13:31:42.321Z,6.50
2018-12-22T13:34:12.648Z,2.83
2018-12-22T13:36:43.055Z,3.70
2018-12-22T13:39:18.167Z,5.70
2018-12-22T13:41:48.509Z,4.58
2018-12-22T13:44:18.731Z,3.02
2018-12-22T13:46:49.178Z,4.42
2018-12-22T13:49:21.053Z,4.15
2018-12-22T13:51:51.761Z,4.95
2018-12-22T13:54:25.541Z,5.10
2018-12-22T13:56:56.920Z,3.35
2018-12-22T13:59:27.431Z,10.08
2018-12-22T14:02:03.647Z,1.95
2018-12-22T14:04:36.411Z,7.08
2018-12-22T14:07:11.760Z,5.05
2018-12-22T14:09:42.858Z,3.08
2018-12-22T14:12:13.278Z,5.97
2018-12-22T14:14:43.696Z,7.90
2018-12-22T14:17:37.293Z,5.75
2018-12-22T14:20:14.058Z,9.25
2018-12-22T14:22:46.185Z,6.75
2018-12-22T14:25:27.197Z,11.43
2018-12-22T14:27:57.520Z,12.90
2018-12-22T14:30:27.955Z,13.08
2018-12-22T14:32:58.287Z,4.83
2018-12-22T14:35:40.921Z,9.83
2018-12-22T14:38:11.453Z,5.55
2018-12-22T14:40:41.814Z,2.22
2018-12-22T14:43:12.138Z,2.50
2018-12-22T14:45:42.442Z,3.77
2018-12-22T14:48:12.759Z,2.33
2018-12-22T14:50:43.355Z,5.10
2018-12-22T14:53:13.876Z,5.55
2018-12-22T14:55:44.220Z,1.62
2018-12-22T14:58:23.245Z,2.95
2018-12-22T15:00:53.791Z,4.80
2018-12-22T15:03:24.347Z,5.67
2018-12-22T15:05:54.682Z,5.30
2018-12-22T15:08:25.033Z,4.67
2018-12-22T15:10:55.582Z,3.98
2018-12-22T15:13:25.911Z,2.02
2018-12-22T15:15:56.206Z,5.62
2018-12-22T15:18:26.614Z,2.67
2018-12-22T15:20:59.611Z,6.95
2018-12-22T15:23:29.890Z,2.55
2018-12-22T15:26:00.235Z,2.75
2018-12-22T15:28:30.551Z,4.03
2018-12-22T15:31:00.917Z,4.37
2018-12-22T15:33:31.255Z,3.30
2018-12-22T15:36:01.766Z,2.30
2018-12-22T15:38:32.080Z,1.90
2018-12-22T15:41:02.671Z,2.70
2018-12-22T15:43:33.595Z,2.87
2018-12-22T15:46:03.905Z,1.22
2018-12-22T15:48:34.547Z,1.60
2018-12-22T15:51:05.172Z,5.53
2018-12-22T15:53:35.552Z,3.20
2018-12-22T15:56:06.035Z,6.25
2018-12-22T15:58:36.537Z,2.20
2018-12-22T16:01:06.915Z,3.05
2018-12-22T16:03:37.610Z,7.53
2018-12-22T16:06:08.073Z,5.62
2018-12-22T16:08:38.666Z,2.47
2018-12-22T16:11:09.164Z,3.70
2018-12-22T16:13:39.554Z,5.22
2018-12-22T16:16:10.061Z,7.10
2018-12-22T16:18:40.553Z,4.72
2018-12-22T16:21:10.979Z,9.25
2018-12-22T16:23:41.455Z,8.03
2018-12-22T16:26:12.247Z,7.22
2018-12-22T16:44:46.430Z,15.60
2018-12-22T16:47:17.294Z,12.60
2018-12-22T16:49:47.754Z,14.70
2018-12-22T16:52:18.266Z,7.15
2018-12-22T16:54:48.830Z,18.07
2018-12-22T16:57:19.361Z,9.85
2018-12-22T16:59:52.547Z,10.08
2018-12-22T17:03:16.120Z,9.55
2018-12-22T17:05:47.106Z,11.90
2018-12-22T17:08:22.462Z,11.10
2018-12-22T17:11:00.069Z,12.18
2018-12-22T17:13:30.862Z,11.90
2018-12-22T17:16:02.590Z,7.53
2018-12-22T17:18:33.378Z,11.18
2018-12-22T17:21:26.762Z,16.73
2018-12-22T17:24:09.734Z,9.73
2018-12-22T17:26:44.112Z,10.08
2018-12-22T17:29:14.361Z,13.08
2018-12-22T17:31:45.681Z,10.20
2018-12-22T17:34:16.525Z,12.05
2018-12-22T17:36:46.967Z,5.72
2018-12-22T17:39:17.910Z,13.43
2018-12-22T17:41:48.715Z,7.97
2018-12-22T17:44:19.228Z,12.20
2018-12-22T17:47:45.814Z,14.40
2018-12-22T17:50:18.927Z,15.90
2018-12-22T17:52:50.261Z,18.42
2018-12-22T17:55:22.491Z,15.05
2018-12-22T17:57:53.432Z,5.25
2018-12-22T18:00:24.019Z,15.20
2018-12-22T18:02:55.284Z,8.20
2018-12-22T18:05:25.634Z,9.98
2018-12-22T18:07:56.140Z,14.40
2018-12-22T18:10:28.796Z,18.37
2018-12-22T18:13:04.386Z,13.15
2018-12-22T18:15:35.120Z,21.82
2018-12-22T18:18:05.923Z,11.83
2018-12-22T18:20:36.230Z,9.80
2018-12-22T18:23:06.935Z,4.87
2018-12-22T18:25:38.441Z,6.22
2018-12-22T18:28:08.803Z,12.20
2018-12-22T18:30:39.294Z,14.95
2018-12-22T18:33:09.717Z,14.38
2018-12-22T18:35:40.406Z,15.58
2018-12-22T18:38:16.423Z,9.90
2018-12-22T18:40:47.064Z,10.23
2018-12-22T18:43:17.649Z,9.15
2018-12-22T18:45:48.539Z,8.53
2018-12-22T18:48:19.033Z,12.33
2018-12-22T18:50:49.531Z,10.98
2018-12-22T18:53:20.294Z,9.50
2018-12-22T18:55:51.108Z,10.75
2018-12-22T18:58:21.854Z,13.15
2018-12-22T19:00:53.334Z,14.30
2018-12-22T19:03:23.829Z,17.00
2018-12-22T19:05:54.263Z,12.18
2018-12-22T19:08:25.946Z,14.25
2018-12-22T19:11:02.805Z,23.40
2018-12-22T19:13:33.311Z,13.08
2018-12-22T19:16:04.007Z,8.08
2018-12-22T19:18:34.384Z,10.75
2018-12-22T19:21:04.897Z,7.30
2018-12-22T19:23:35.264Z,15.83
2018-12-22T19:26:05.843Z,14.83
2018-12-22T19:28:38.165Z,14.60
2018-12-22T19:31:08.611Z,10.53
2018-12-22T19:33:40.141Z,11.85
2018-12-22T19:36:10.490Z,6.97
2018-12-22T19:38:41.501Z,16.75
2018-12-22T19:41:12.186Z,14.90
2018-12-22T19:43:42.716Z,13.50
2018-12-22T19:46:14.454Z,19.45
2018-12-22T19:48:45.498Z,12.05
2018-12-22T19:51:15.926Z,12.80
2018-12-22T19:53:47.641Z,18.77
2018-12-22T19:56:19.550Z,13.88
2018-12-22T19:58:50.645Z,20.70
2018-12-22T20:01:21.248Z,17.10
2018-12-22T20:03:51.649Z,12.45
2018-12-22T20:06:22.195Z,13.98
2018-12-22T20:08:52.492Z,10.23
2018-12-22T20:11:23.012Z,19.67
2018-12-22T20:13:53.333Z,13.65
2018-12-22T20:16:24.173Z,8.13
2018-12-22T20:18:55.228Z,6.72
2018-12-22T20:21:25.664Z,11.10
2018-12-22T20:23:56.055Z,5.87
2018-12-22T20:26:26.789Z,6.83
2018-12-22T20:28:57.127Z,12.10
2018-12-22T20:31:27.646Z,11.20
2018-12-22T20:33:57.915Z,7.45
2018-12-22T20:36:29.506Z,6.03
2018-12-22T20:38:59.857Z,10.15
2018-12-22T20:41:30.521Z,7.40
2018-12-22T20:44:01.123Z,9.98
2018-12-22T20:46:31.541Z,10.58
2018-12-22T20:49:03.075Z,15.23
2018-12-22T20:51:33.784Z,20.00
2018-12-22T20:54:06.384Z,9.53
2018-12-22T20:56:36.864Z,11.95
2018-12-22T20:59:12.661Z,10.20
2018-12-22T21:01:43.207Z,15.83
2018-12-22T21:04:20.973Z,7.95
2018-12-22T21:06:52.930Z,7.70
2018-12-22T21:09:24.065Z,7.58
2018-12-22T21:11:54.665Z,13.60
2018-12-22T21:14:25.079Z,9.53
2018-12-22T21:16:55.737Z,10.32
2018-12-22T21:19:26.299Z,10.35
2018-12-22T21:38:01.646Z,5.75
2018-12-22T21:40:32.175Z,13.08
2018-12-22T21:43:02.553Z,13.60
2018-12-22T21:45:32.993Z,15.03
2018-12-22T21:48:03.763Z,16.55
2018-12-22T21:50:34.099Z,19.45
2018-12-22T21:53:05.256Z,10.60
2018-12-22T21:55:36.381Z,17.70
2018-12-22T21:58:08.032Z,9.55
2018-12-22T22:00:38.459Z,13.45
2018-12-22T22:19:13.113Z,12.90
2018-12-22T22:21:45.818Z,12.88
2018-12-22T22:24:15.999Z,11.45
2018-12-22T22:26:46.350Z,13.25
2018-12-22T22:29:17.154Z,11.33
2018-12-22T22:31:47.601Z,11.28
2018-12-22T22:34:18.152Z,16.17
2018-12-22T22:36:51.650Z,14.50
2018-12-22T22:39:21.991Z,16.62
2018-12-22T22:41:52.727Z,14.45
2018-12-22T22:44:24.131Z,8.20
2018-12-22T22:46:54.822Z,10.48
2018-12-22T22:49:25.464Z,14.18
2018-12-22T22:51:55.859Z,13.98
2018-12-22T22:54:26.908Z,10.05
2018-12-22T22:56:59.402Z,11.43
2018-12-22T22:59:30.519Z,6.35
2018-12-22T23:02:01.208Z,13.62
2018-12-22T23:04:31.477Z,13.78
2018-12-22T23:07:01.845Z,8.18
2018-12-22T23:09:32.215Z,16.23
2018-12-22T23:12:02.622Z,12.25
2018-12-22T23:14:33.058Z,14.93
2018-12-22T23:17:03.435Z,9.60
2018-12-22T23:19:35.046Z,8.90
2018-12-22T23:22:05.762Z,8.50
2018-12-22T23:24:36.337Z,13.22
2018-12-22T23:27:06.649Z,9.70
2018-12-22T23:29:37.289Z,15.63
2018-12-22T23:32:07.701Z,11.53
2018-12-22T23:34:38.262Z,15.40
2018-12-22T23:37:08.661Z,11.90
2018-12-22T23:39:39.407Z,17.92
2018-12-22T23:42:09.818Z,14.40
2018-12-22T23:44:40.607Z,7.40
2018-12-22T23:47:11.098Z,7.85
2018-12-22T23:49:41.509Z,11.08
2018-12-22T23:52:13.066Z,11.63
2018-12-22T23:54:43.603Z,8.95
2018-12-22T23:57:14.104Z,9.75
2018-12-22T23:59:44.859Z,7.87
